createdAt,value
2018-01-15T00:02:11.179Z,3.32
2018-01-15T00:07:12.483Z,3.23
2018-01-15T00:12:14.643Z,3.19
2018-01-15T00:17:16.079Z,3.33
2018-01-15T00:22:18.137Z,3.30
2018-01-15T00:27:19.522Z,3.31
2018-01-15T00:32:20.866Z,3.35
2018-01-15T00:37:22.175Z,3.34
2018-01-15T00:42:23.559Z,3.36
2018-01-15T00:47:24.975Z,3.43
2018-01-15T00:52:26.282Z,3.47
2018-01-15T00:57:27.687Z,3.42
2018-01-15T01:02:29.064Z,3.39
2018-01-15T01:07:30.390Z,3.45
2018-01-15T01:12:31.777Z,3.33
2018-01-15T01:17:33.128Z,3.43
2018-01-15T01:22:34.455Z,3.45
2018-01-15T01:27:35.793Z,3.52
2018-01-15T01:32:37.100Z,3.50
2018-01-15T01:37:38.418Z,3.58
2018-01-15T01:42:39.769Z,3.59
2018-01-15T01:47:41.077Z,3.64
2018-01-15T01:52:42.502Z,3.53
2018-01-15T01:57:43.834Z,3.57
2018-01-15T02:02:45.151Z,3.51
2018-01-15T02:07:46.446Z,3.53
2018-01-15T02:12:47.849Z,3.50
2018-01-15T02:17:49.929Z,3.56
2018-01-15T02:22:51.252Z,3.50
2018-01-15T02:27:53.355Z,3.58
2018-01-15T02:32:54.692Z,3.58
2018-01-15T02:37:56.025Z,3.56
2018-01-15T02:42:57.399Z,3.48
2018-01-15T02:47:58.717Z,3.53
2018-01-15T02:53:00.037Z,3.51
2018-01-15T02:58:01.363Z,3.58
2018-01-15T03:03:02.710Z,3.61
2018-01-15T03:08:04.038Z,3.63
2018-01-15T03:13:05.334Z,3.58
2018-01-15T03:18:06.678Z,3.58
2018-01-15T03:23:08.001Z,3.65
2018-01-15T03:28:09.328Z,3.60
2018-01-15T03:33:10.663Z,3.69
2018-01-15T03:38:11.985Z,3.75
2018-01-15T03:43:13.332Z,3.75
2018-01-15T03:48:14.655Z,3.85
2018-01-15T03:53:16.013Z,3.81
2018-01-15T03:58:17.338Z,3.78
2018-01-15T04:03:18.691Z,3.66
2018-01-15T04:08:20.044Z,3.74
2018-01-15T04:13:21.452Z,3.67
2018-01-15T04:18:22.746Z,3.69
2018-01-15T04:23:24.792Z,3.71
2018-01-15T04:28:26.116Z,3.76
2018-01-15T04:33:27.445Z,3.78
2018-01-15T04:38:28.795Z,3.81
2018-01-15T04:43:30.103Z,3.75
2018-01-15T04:48:32.177Z,3.76
2018-01-15T04:53:33.497Z,3.76
2018-01-15T04:58:35.551Z,3.80
2018-01-15T05:03:36.907Z,3.77
2018-01-15T05:08:38.283Z,3.79
2018-01-15T05:13:40.387Z,3.81
2018-01-15T05:18:42.487Z,3.98
2018-01-15T05:23:43.850Z,4.01
2018-01-15T05:28:45.199Z,4.03
2018-01-15T05:33:46.584Z,4.10
2018-01-15T05:38:47.919Z,4.14
2018-01-15T05:43:49.259Z,4.39
2018-01-15T05:48:51.303Z,4.56
2018-01-15T05:53:52.607Z,4.63
2018-01-15T05:58:53.958Z,4.52
2018-01-15T06:03:55.271Z,4.55
2018-01-15T06:08:56.597Z,4.63
2018-01-15T06:13:57.903Z,4.68
2018-01-15T06:18:59.959Z,4.77
2018-01-15T06:24:01.266Z,4.83
2018-01-15T06:29:02.608Z,4.94
2018-01-15T06:34:03.944Z,4.90
2018-01-15T06:39:05.250Z,5.00
2018-01-15T06:44:06.613Z,4.98
2018-01-15T06:49:07.949Z,4.97
2018-01-15T06:54:10.007Z,5.00
2018-01-15T06:59:11.333Z,5.02
2018-01-15T07:04:13.457Z,5.11
2018-01-15T07:09:15.547Z,4.91
2018-01-15T07:14:16.875Z,5.07
2018-01-15T07:19:18.187Z,5.13
2018-01-15T07:24:19.479Z,5.10
2018-01-15T07:29:20.779Z,5.28
2018-01-15T07:34:22.127Z,5.25
2018-01-15T07:39:23.450Z,5.35
2018-01-15T07:44:24.773Z,5.48
2018-01-15T07:49:33.835Z,5.41
2018-01-15T07:54:35.144Z,5.28
2018-01-15T07:59:37.520Z,5.31
2018-01-15T08:04:38.886Z,5.42
2018-01-15T08:09:40.197Z,5.78
2018-01-15T08:14:41.787Z,6.05
2018-01-15T08:19:43.112Z,6.24
2018-01-15T08:24:45.171Z,6.32
2018-01-15T08:29:46.489Z,6.30
2018-01-15T08:34:47.819Z,6.24
2018-01-15T08:39:49.123Z,6.33
2018-01-15T08:44:50.451Z,6.35
2018-01-15T08:49:51.788Z,6.56
2018-01-15T08:54:53.133Z,6.66
2018-01-15T08:59:54.443Z,6.70
2018-01-15T09:04:56.525Z,6.72
2018-01-15T09:09:57.841Z,6.92
2018-01-15T09:14:59.902Z,7.12
2018-01-15T09:20:01.223Z,7.05
2018-01-15T09:25:02.584Z,7.05
2018-01-15T09:30:03.943Z,7.08
2018-01-15T09:35:06.171Z,7.15
2018-01-15T09:40:08.047Z,6.97
2018-01-15T09:45:09.355Z,7.07
2018-01-15T09:50:10.700Z,7.11
2018-01-15T09:55:12.016Z,7.18
2018-01-15T10:00:13.313Z,7.27
2018-01-15T10:05:14.638Z,7.42
2018-01-15T10:10:15.985Z,7.45
2018-01-15T10:15:17.299Z,7.57
2018-01-15T10:20:18.640Z,7.64
2018-01-15T10:25:20.743Z,7.61
2018-01-15T10:30:22.072Z,7.74
2018-01-15T10:35:23.386Z,7.68
2018-01-15T10:40:24.703Z,7.57
2018-01-15T10:45:26.834Z,7.70
2018-01-15T10:50:28.211Z,7.92
2018-01-15T10:55:30.262Z,8.13
2018-01-15T11:00:37.727Z,8.15
2018-01-15T11:05:39.059Z,8.22
2018-01-15T11:10:40.428Z,8.31
2018-01-15T11:15:42.490Z,8.42
2018-01-15T11:20:43.789Z,8.31
2018-01-15T11:25:45.119Z,8.41
2018-01-15T11:30:46.399Z,8.41
2018-01-15T11:35:50.159Z,8.38
2018-01-15T11:40:52.155Z,8.40
2018-01-15T11:45:54.824Z,8.60
2018-01-15T11:50:56.467Z,8.67
2018-01-15T11:55:57.808Z,8.63
2018-01-15T12:00:59.139Z,8.60
2018-01-15T12:06:00.439Z,8.65
2018-01-15T12:11:02.537Z,8.57
2018-01-15T12:16:03.850Z,8.60
2018-01-15T12:21:05.935Z,8.68
2018-01-15T12:26:08.015Z,8.70
2018-01-15T12:31:09.343Z,8.60
2018-01-15T12:36:11.459Z,8.48
2018-01-15T12:41:13.715Z,8.53
2018-01-15T12:46:18.042Z,8.52
2018-01-15T12:51:19.355Z,8.48
2018-01-15T12:56:20.683Z,8.39
2018-01-15T13:01:22.052Z,8.35
2018-01-15T13:06:41.931Z,8.16
2018-01-15T13:11:43.263Z,8.25
2018-01-15T13:16:44.611Z,8.38
2018-01-15T13:21:45.919Z,8.34
2018-01-15T13:26:47.235Z,8.33
2018-01-15T13:31:48.584Z,8.42
2018-01-15T13:36:54.941Z,8.44
2018-01-15T13:41:56.300Z,8.31
2018-01-15T13:46:57.628Z,8.35
2018-01-15T13:51:58.940Z,8.35
2018-01-15T13:57:00.994Z,8.36
2018-01-15T14:02:02.303Z,8.22
2018-01-15T14:07:03.652Z,8.29
2018-01-15T14:12:04.989Z,8.23
2018-01-15T14:17:06.280Z,8.18
2018-01-15T14:22:07.626Z,8.15
2018-01-15T14:27:08.931Z,8.28
2018-01-15T14:32:10.244Z,8.27
2018-01-15T14:37:12.473Z,8.19
2018-01-15T14:42:14.536Z,8.49
2018-01-15T14:47:15.863Z,8.48
2018-01-15T14:52:17.196Z,8.43
2018-01-15T14:57:18.509Z,8.22
2018-01-15T15:02:19.884Z,8.20
2018-01-15T15:07:21.259Z,8.23
2018-01-15T15:12:22.660Z,8.18
2018-01-15T15:17:23.978Z,8.20
2018-01-15T15:22:25.375Z,8.15
2018-01-15T15:27:26.733Z,8.21
2018-01-15T15:32:28.147Z,8.04
2018-01-15T15:37:29.439Z,7.99
2018-01-15T15:42:30.768Z,8.00
2018-01-15T15:47:37.015Z,7.97
2018-01-15T15:52:38.335Z,7.87
2018-01-15T15:57:39.703Z,7.85
2018-01-15T16:02:41.048Z,7.80
2018-01-15T16:07:42.397Z,7.75
2018-01-15T16:12:43.720Z,7.80
2018-01-15T16:17:45.784Z,7.71
2018-01-15T16:22:57.295Z,7.65
2018-01-15T16:27:58.623Z,7.76
2018-01-15T16:32:59.955Z,7.69
2018-01-15T16:38:01.276Z,7.78
2018-01-15T16:43:02.643Z,7.71
2018-01-15T16:48:03.986Z,7.70
2018-01-15T16:53:06.085Z,7.87
2018-01-15T16:58:07.407Z,7.89
2018-01-15T17:03:08.756Z,7.86
2018-01-15T17:08:10.099Z,7.71
2018-01-15T17:13:11.560Z,7.88
2018-01-15T17:18:13.678Z,7.75
2018-01-15T17:23:15.035Z,7.67
2018-01-15T17:28:16.401Z,7.64
2018-01-15T17:33:17.829Z,7.78
2018-01-15T17:38:19.164Z,7.88
2018-01-15T17:43:20.482Z,7.98
2018-01-15T17:48:21.934Z,8.08
2018-01-15T17:53:23.452Z,8.14
2018-01-15T17:58:24.861Z,8.19
2018-01-15T18:03:26.260Z,8.32
2018-01-15T18:08:27.630Z,8.33
2018-01-15T18:13:28.988Z,8.35
2018-01-15T18:18:30.375Z,8.47
2018-01-15T18:23:31.729Z,8.48
2018-01-15T18:28:33.040Z,8.48
2018-01-15T18:33:35.102Z,8.64
2018-01-15T18:38:36.667Z,8.53
2018-01-15T18:43:37.981Z,8.60
2018-01-15T18:48:39.323Z,8.48
2018-01-15T18:53:41.444Z,8.38
2018-01-15T18:58:42.847Z,8.45
2018-01-15T19:03:44.163Z,8.31
2018-01-15T19:08:45.795Z,8.36
2018-01-15T19:13:47.883Z,8.31
2018-01-15T19:18:49.323Z,8.17
2018-01-15T19:23:50.667Z,8.15
2018-01-15T19:28:52.928Z,8.12
2018-01-15T19:33:54.344Z,7.96
2018-01-15T19:38:57.154Z,8.20
2018-01-15T19:44:01.439Z,8.01
2018-01-15T19:49:08.909Z,7.98
2018-01-15T19:54:17.078Z,8.03
2018-01-15T19:59:24.379Z,8.04
2018-01-15T20:04:31.730Z,8.05
2018-01-15T20:09:41.082Z,8.08
2018-01-15T20:14:42.484Z,8.17
2018-01-15T20:19:45.396Z,8.18
2018-01-15T20:24:46.751Z,8.10
2018-01-15T20:29:48.121Z,8.20
2018-01-15T20:34:49.542Z,8.16
2018-01-15T20:39:51.064Z,8.03
2018-01-15T20:44:52.468Z,7.95
2018-01-15T20:49:54.797Z,7.96
2018-01-15T20:54:56.187Z,7.93
2018-01-15T20:59:57.558Z,8.07
2018-01-15T21:04:59.709Z,8.04
2018-01-15T21:10:01.962Z,8.03
2018-01-15T21:15:04.310Z,8.02
2018-01-15T21:20:06.331Z,8.06
2018-01-15T21:25:08.865Z,7.97
2018-01-15T21:30:11.109Z,7.99
2018-01-15T21:35:12.992Z,7.98
2018-01-15T21:40:15.981Z,8.03
2018-01-15T21:45:18.352Z,7.99
2018-01-15T21:50:27.367Z,8.02
2018-01-15T21:55:29.531Z,8.05
2018-01-15T22:00:30.927Z,8.04
2018-01-15T22:05:32.840Z,8.12
2018-01-15T22:10:35.047Z,8.28
2018-01-15T22:15:37.625Z,8.16
2018-01-15T22:20:40.019Z,8.17
2018-01-15T22:25:48.662Z,8.08
2018-01-15T22:30:51.558Z,8.11
2018-01-15T22:35:52.899Z,8.30
2018-01-15T22:40:55.137Z,8.28
2018-01-15T22:45:57.803Z,8.31
2018-01-15T22:50:59.872Z,8.39
2018-01-15T22:56:01.346Z,8.53
2018-01-15T23:01:03.507Z,8.57
2018-01-15T23:06:06.173Z,8.57
2018-01-15T23:11:08.375Z,8.56
2018-01-15T23:16:10.496Z,8.64
2018-01-15T23:21:11.847Z,8.70
2018-01-15T23:26:13.151Z,8.76
2018-01-15T23:31:14.467Z,8.81
2018-01-15T23:36:15.975Z,8.73
2018-01-15T23:41:17.292Z,8.84
2018-01-15T23:46:19.403Z,8.88
2018-01-15T23:51:21.502Z,8.86
2018-01-15T23:56:22.805Z,8.96
